sensor_id;sensor_type;location;lat;lon;timestamp;temperature;humidity
46440;DHT22;32138;50.966;6.968;2023-11-21T00:01:24;10.80;99.90
46440;DHT22;32138;50.966;6.968;2023-11-21T00:02:55;10.80;99.90
46440;DHT22;32138;50.966;6.968;2023-11-21T00:04:26;10.70;99.90
46440;DHT22;32138;50.966;6.968;2023-11-21T00:05:58;10.70;99.90
46440;DHT22;32138;50.966;6.968;2023-11-21T00:07:28;10.90;99.90
46440;DHT22;32138;50.966;6.968;2023-11-21T00:08:59;11.10;99.90
46440;DHT22;32138;50.966;6.968;2023-11-21T00:10:30;11.10;99.90
46440;DHT22;32138;50.966;6.968;2023-11-21T00:12:01;11.10;99.90
46440;DHT22;32138;50.966;6.968;2023-11-21T00:13:32;11.20;99.90
46440;DHT22;32138;50.966;6.968;2023-11-21T00:15:04;11.20;99.90
46440;DHT22;32138;50.966;6.968;2023-11-21T00:16:44;11.20;99.90
46440;DHT22;32138;50.966;6.968;2023-11-21T00:18:15;11.20;99.90
46440;DHT22;32138;50.966;6.968;2023-11-21T00:19:47;11.20;99.90
46440;DHT22;32138;50.966;6.968;2023-11-21T00:21:17;11.10;99.90
46440;DHT22;32138;50.966;6.968;2023-11-21T00:22:48;11.20;99.90
46440;DHT22;32138;50.966;6.968;2023-11-21T00:24:19;11.30;99.90
46440;DHT22;32138;50.966;6.968;2023-11-21T00:25:49;11.20;99.90
46440;DHT22;32138;50.966;6.968;2023-11-21T00:27:20;11.20;99.90
46440;DHT22;32138;50.966;6.968;2023-11-21T00:28:51;11.20;99.90
46440;DHT22;32138;50.966;6.968;2023-11-21T00:30:22;11.10;99.90
46440;DHT22;32138;50.966;6.968;2023-11-21T00:31:52;11.20;99.90
46440;DHT22;32138;50.966;6.968;2023-11-21T00:33:24;11.20;99.90
46440;DHT22;32138;50.966;6.968;2023-11-21T00:34:55;11.20;99.90
46440;DHT22;32138;50.966;6.968;2023-11-21T00:36:26;11.20;99.90
46440;DHT22;32138;50.966;6.968;2023-11-21T00:37:58;11.10;99.90
46440;DHT22;32138;50.966;6.968;2023-11-21T00:39:28;11.20;99.90
46440;DHT22;32138;50.966;6.968;2023-11-21T00:40:59;11.20;99.90
46440;DHT22;32138;50.966;6.968;2023-11-21T00:42:30;11.30;99.90
46440;DHT22;32138;50.966;6.968;2023-11-21T00:44:02;11.30;99.90
46440;DHT22;32138;50.966;6.968;2023-11-21T00:45:33;11.30;99.90
46440;DHT22;32138;50.966;6.968;2023-11-21T00:47:04;11.30;99.90
46440;DHT22;32138;50.966;6.968;2023-11-21T00:48:34;11.30;99.90
46440;DHT22;32138;50.966;6.968;2023-11-21T00:50:06;11.20;99.90
46440;DHT22;32138;50.966;6.968;2023-11-21T00:51:37;11.30;99.90
46440;DHT22;32138;50.966;6.968;2023-11-21T00:53:08;11.30;99.90
46440;DHT22;32138;50.966;6.968;2023-11-21T00:54:38;11.30;99.90
46440;DHT22;32138;50.966;6.968;2023-11-21T00:56:10;11.30;99.90
46440;DHT22;32138;50.966;6.968;2023-11-21T00:57:40;11.30;99.90
46440;DHT22;32138;50.966;6.968;2023-11-21T00:59:11;11.20;99.90
46440;DHT22;32138;50.966;6.968;2023-11-21T01:00:42;11.20;99.90
46440;DHT22;32138;50.966;6.968;2023-11-21T01:02:13;11.10;99.90
46440;DHT22;32138;50.966;6.968;2023-11-21T01:03:46;11.00;99.90
46440;DHT22;32138;50.966;6.968;2023-11-21T01:05:17;10.90;99.90
46440;DHT22;32138;50.966;6.968;2023-11-21T01:06:47;10.90;99.90
46440;DHT22;32138;50.966;6.968;2023-11-21T01:08:18;10.70;99.90
46440;DHT22;32138;50.966;6.968;2023-11-21T01:09:49;10.70;99.90
46440;DHT22;32138;50.966;6.968;2023-11-21T01:11:20;10.60;99.90
46440;DHT22;32138;50.966;6.968;2023-11-21T01:12:50;10.60;99.90
46440;DHT22;32138;50.966;6.968;2023-11-21T01:14:21;10.60;99.90
46440;DHT22;32138;50.966;6.968;2023-11-21T01:15:52;10.90;99.90
46440;DHT22;32138;50.966;6.968;2023-11-21T01:17:23;10.80;99.90
46440;DHT22;32138;50.966;6.968;2023-11-21T01:18:54;10.90;99.90
46440;DHT22;32138;50.966;6.968;2023-11-21T01:20:25;10.80;99.90
46440;DHT22;32138;50.966;6.968;2023-11-21T01:21:56;10.80;99.90
46440;DHT22;32138;50.966;6.968;2023-11-21T01:23:28;10.90;99.90
46440;DHT22;32138;50.966;6.968;2023-11-21T01:24:59;10.90;99.90
46440;DHT22;32138;50.966;6.968;2023-11-21T01:26:29;10.90;99.90
46440;DHT22;32138;50.966;6.968;2023-11-21T01:28:00;11.00;99.90
46440;DHT22;32138;50.966;6.968;2023-11-21T01:29:31;11.00;99.90
46440;DHT22;32138;50.966;6.968;2023-11-21T01:31:02;10.90;99.90
46440;DHT22;32138;50.966;6.968;2023-11-21T01:32:32;10.90;99.90
46440;DHT22;32138;50.966;6.968;2023-11-21T01:34:03;10.90;99.90
46440;DHT22;32138;50.966;6.968;2023-11-21T01:35:35;11.00;99.90
46440;DHT22;32138;50.966;6.968;2023-11-21T01:37:06;10.90;99.90
46440;DHT22;32138;50.966;6.968;2023-11-21T01:38:37;10.90;99.90
46440;DHT22;32138;50.966;6.968;2023-11-21T01:40:08;10.90;99.90
46440;DHT22;32138;50.966;6.968;2023-11-21T01:41:43;11.00;99.90
46440;DHT22;32138;50.966;6.968;2023-11-21T01:43:14;11.00;99.90
46440;DHT22;32138;50.966;6.968;2023-11-21T01:44:45;11.00;99.90
46440;DHT22;32138;50.966;6.968;2023-11-21T01:46:16;11.00;99.90
46440;DHT22;32138;50.966;6.968;2023-11-21T01:47:47;11.10;99.90
46440;DHT22;32138;50.966;6.968;2023-11-21T01:49:18;11.00;99.90
46440;DHT22;32138;50.966;6.968;2023-11-21T01:50:50;11.00;99.90
46440;DHT22;32138;50.966;6.968;2023-11-21T01:52:21;11.10;99.90
46440;DHT22;32138;50.966;6.968;2023-11-21T01:53:52;11.00;99.90
46440;DHT22;32138;50.966;6.968;2023-11-21T01:55:23;11.00;99.90
46440;DHT22;32138;50.966;6.968;2023-11-21T01:56:54;11.00;99.90
46440;DHT22;32138;50.966;6.968;2023-11-21T01:58:25;11.00;99.90
46440;DHT22;32138;50.966;6.968;2023-11-21T01:59:56;11.00;99.90
46440;DHT22;32138;50.966;6.968;2023-11-21T02:01:29;11.00;99.90
46440;DHT22;32138;50.966;6.968;2023-11-21T02:03:00;11.00;99.90
46440;DHT22;32138;50.966;6.968;2023-11-21T02:04:34;11.00;99.90
46440;DHT22;32138;50.966;6.968;2023-11-21T02:06:07;11.00;99.90
46440;DHT22;32138;50.966;6.968;2023-11-21T02:07:42;11.00;99.90
46440;DHT22;32138;50.966;6.968;2023-11-21T02:09:15;11.00;99.90
46440;DHT22;32138;50.966;6.968;2023-11-21T02:10:46;11.00;99.90
46440;DHT22;32138;50.966;6.968;2023-11-21T02:12:18;10.90;99.90
46440;DHT22;32138;50.966;6.968;2023-11-21T02:13:48;10.60;99.90
46440;DHT22;32138;50.966;6.968;2023-11-21T02:15:20;10.70;99.90
46440;DHT22;32138;50.966;6.968;2023-11-21T02:16:51;10.80;99.90
46440;DHT22;32138;50.966;6.968;2023-11-21T02:18:22;10.70;99.90
46440;DHT22;32138;50.966;6.968;2023-11-21T02:19:53;10.80;99.90
46440;DHT22;32138;50.966;6.968;2023-11-21T02:21:25;10.80;99.90
46440;DHT22;32138;50.966;6.968;2023-11-21T02:22:57;10.60;99.90
46440;DHT22;32138;50.966;6.968;2023-11-21T02:24:28;10.40;99.90
46440;DHT22;32138;50.966;6.968;2023-11-21T02:25:59;10.30;99.90
46440;DHT22;32138;50.966;6.968;2023-11-21T02:27:34;10.20;99.90
46440;DHT22;32138;50.966;6.968;2023-11-21T02:29:05;10.20;99.90
46440;DHT22;32138;50.966;6.968;2023-11-21T02:30:36;10.40;99.90
46440;DHT22;32138;50.966;6.968;2023-11-21T02:32:07;10.40;99.90
46440;DHT22;32138;50.966;6.968;2023-11-21T02:33:41;10.20;99.90
46440;DHT22;32138;50.966;6.968;2023-11-21T02:35:11;10.20;99.90
46440;DHT22;32138;50.966;6.968;2023-11-21T02:36:45;10.40;99.90
46440;DHT22;32138;50.966;6.968;2023-11-21T02:38:17;10.40;99.90
46440;DHT22;32138;50.966;6.968;2023-11-21T02:39:48;10.40;99.90
46440;DHT22;32138;50.966;6.968;2023-11-21T02:41:19;10.30;99.90
46440;DHT22;32138;50.966;6.968;2023-11-21T02:42:50;10.30;99.90
46440;DHT22;32138;50.966;6.968;2023-11-21T02:44:24;10.30;99.90
46440;DHT22;32138;50.966;6.968;2023-11-21T02:45:54;10.30;99.90
46440;DHT22;32138;50.966;6.968;2023-11-21T02:47:25;10.30;99.90
46440;DHT22;32138;50.966;6.968;2023-11-21T02:48:56;10.30;99.90
46440;DHT22;32138;50.966;6.968;2023-11-21T02:50:28;10.40;99.90
46440;DHT22;32138;50.966;6.968;2023-11-21T02:52:00;10.40;99.90
46440;DHT22;32138;50.966;6.968;2023-11-21T02:53:31;10.50;99.90
46440;DHT22;32138;50.966;6.968;2023-11-21T02:55:03;10.40;99.90
46440;DHT22;32138;50.966;6.968;2023-11-21T02:56:34;10.50;99.90
46440;DHT22;32138;50.966;6.968;2023-11-21T02:58:05;10.40;99.90
46440;DHT22;32138;50.966;6.968;2023-11-21T02:59:36;10.40;99.90
46440;DHT22;32138;50.966;6.968;2023-11-21T03:01:07;10.50;99.90
46440;DHT22;32138;50.966;6.968;2023-11-21T03:02:37;10.70;99.90
46440;DHT22;32138;50.966;6.968;2023-11-21T03:04:09;10.80;99.90
46440;DHT22;32138;50.966;6.968;2023-11-21T03:05:40;10.90;99.90
46440;DHT22;32138;50.966;6.968;2023-11-21T03:07:10;10.90;99.90
46440;DHT22;32138;50.966;6.968;2023-11-21T03:08:41;10.90;99.90
46440;DHT22;32138;50.966;6.968;2023-11-21T03:10:12;11.00;99.90
46440;DHT22;32138;50.966;6.968;2023-11-21T03:11:43;11.00;99.90
46440;DHT22;32138;50.966;6.968;2023-11-21T03:13:14;11.00;99.90
46440;DHT22;32138;50.966;6.968;2023-11-21T03:14:45;11.00;99.90
46440;DHT22;32138;50.966;6.968;2023-11-21T03:16:16;11.00;99.90
46440;DHT22;32138;50.966;6.968;2023-11-21T03:17:46;11.00;99.90
46440;DHT22;32138;50.966;6.968;2023-11-21T03:19:19;11.00;99.90
46440;DHT22;32138;50.966;6.968;2023-11-21T03:20:54;11.00;99.90
46440;DHT22;32138;50.966;6.968;2023-11-21T03:22:25;10.90;99.90
46440;DHT22;32138;50.966;6.968;2023-11-21T03:23:56;10.90;99.90
46440;DHT22;32138;50.966;6.968;2023-11-21T03:25:28;10.90;99.90
46440;DHT22;32138;50.966;6.968;2023-11-21T03:26:59;10.90;99.90
46440;DHT22;32138;50.966;6.968;2023-11-21T03:28:29;10.90;99.90
46440;DHT22;32138;50.966;6.968;2023-11-21T03:30:00;10.80;99.90
46440;DHT22;32138;50.966;6.968;2023-11-21T03:31:31;10.90;99.90
46440;DHT22;32138;50.966;6.968;2023-11-21T03:33:02;10.90;99.90
46440;DHT22;32138;50.966;6.968;2023-11-21T03:34:33;11.00;99.90
46440;DHT22;32138;50.966;6.968;2023-11-21T03:36:03;11.00;99.90
46440;DHT22;32138;50.966;6.968;2023-11-21T03:37:34;11.00;99.90
46440;DHT22;32138;50.966;6.968;2023-11-21T03:39:05;10.90;99.90
46440;DHT22;32138;50.966;6.968;2023-11-21T03:40:36;11.00;99.90
46440;DHT22;32138;50.966;6.968;2023-11-21T03:42:07;11.00;99.90
46440;DHT22;32138;50.966;6.968;2023-11-21T03:43:38;11.00;99.90
46440;DHT22;32138;50.966;6.968;2023-11-21T03:45:09;10.90;99.90
46440;DHT22;32138;50.966;6.968;2023-11-21T03:46:40;10.90;99.90
46440;DHT22;32138;50.966;6.968;2023-11-21T03:48:12;10.90;99.90
46440;DHT22;32138;50.966;6.968;2023-11-21T03:49:43;10.90;99.90
46440;DHT22;32138;50.966;6.968;2023-11-21T03:51:14;10.80;99.90
46440;DHT22;32138;50.966;6.968;2023-11-21T03:52:45;10.80;99.90
46440;DHT22;32138;50.966;6.968;2023-11-21T03:54:15;10.90;99.90
46440;DHT22;32138;50.966;6.968;2023-11-21T03:55:46;10.80;99.90
46440;DHT22;32138;50.966;6.968;2023-11-21T03:57:17;10.80;99.90
46440;DHT22;32138;50.966;6.968;2023-11-21T03:58:48;10.80;99.90
46440;DHT22;32138;50.966;6.968;2023-11-21T04:00:19;11.00;99.90
46440;DHT22;32138;50.966;6.968;2023-11-21T04:01:50;10.80;99.90
46440;DHT22;32138;50.966;6.968;2023-11-21T04:03:21;10.90;99.90
46440;DHT22;32138;50.966;6.968;2023-11-21T04:04:52;10.70;99.90
46440;DHT22;32138;50.966;6.968;2023-11-21T04:06:22;10.70;99.90
46440;DHT22;32138;50.966;6.968;2023-11-21T04:07:53;10.70;99.90
46440;DHT22;32138;50.966;6.968;2023-11-21T04:09:24;10.80;99.90
46440;DHT22;32138;50.966;6.968;2023-11-21T04:10:55;10.80;99.90
46440;DHT22;32138;50.966;6.968;2023-11-21T04:12:26;10.80;99.90
46440;DHT22;32138;50.966;6.968;2023-11-21T04:13:57;10.80;99.90
46440;DHT22;32138;50.966;6.968;2023-11-21T04:15:27;10.90;99.90
46440;DHT22;32138;50.966;6.968;2023-11-21T04:16:58;10.90;99.90
46440;DHT22;32138;50.966;6.968;2023-11-21T04:18:29;10.80;99.90
46440;DHT22;32138;50.966;6.968;2023-11-21T04:20:00;10.60;99.90
46440;DHT22;32138;50.966;6.968;2023-11-21T04:21:30;10.80;99.90
46440;DHT22;32138;50.966;6.968;2023-11-21T04:23:02;10.80;99.90
46440;DHT22;32138;50.966;6.968;2023-11-21T04:24:33;10.80;99.90
46440;DHT22;32138;50.966;6.968;2023-11-21T04:26:04;10.80;99.90
46440;DHT22;32138;50.966;6.968;2023-11-21T04:27:35;10.80;99.90
46440;DHT22;32138;50.966;6.968;2023-11-21T04:29:06;10.90;99.90
46440;DHT22;32138;50.966;6.968;2023-11-21T04:30:36;10.90;99.90
46440;DHT22;32138;50.966;6.968;2023-11-21T04:32:07;10.90;99.90
46440;DHT22;32138;50.966;6.968;2023-11-21T04:33:38;10.90;99.90
46440;DHT22;32138;50.966;6.968;2023-11-21T04:35:09;10.90;99.90
46440;DHT22;32138;50.966;6.968;2023-11-21T04:36:40;10.80;99.90
46440;DHT22;32138;50.966;6.968;2023-11-21T04:38:10;10.80;99.90
46440;DHT22;32138;50.966;6.968;2023-11-21T04:39:41;10.80;99.90
46440;DHT22;32138;50.966;6.968;2023-11-21T04:41:12;10.80;99.90
46440;DHT22;32138;50.966;6.968;2023-11-21T04:42:43;10.80;99.90
46440;DHT22;32138;50.966;6.968;2023-11-21T04:44:13;10.80;99.90
46440;DHT22;32138;50.966;6.968;2023-11-21T04:45:46;10.80;99.90
46440;DHT22;32138;50.966;6.968;2023-11-21T04:47:17;10.70;99.90
46440;DHT22;32138;50.966;6.968;2023-11-21T04:48:49;10.50;99.90
46440;DHT22;32138;50.966;6.968;2023-11-21T04:50:20;10.60;99.90
46440;DHT22;32138;50.966;6.968;2023-11-21T04:51:51;10.80;99.90
46440;DHT22;32138;50.966;6.968;2023-11-21T04:53:22;10.80;99.90
46440;DHT22;32138;50.966;6.968;2023-11-21T04:54:55;10.80;99.90
46440;DHT22;32138;50.966;6.968;2023-11-21T04:56:28;10.70;99.90
46440;DHT22;32138;50.966;6.968;2023-11-21T04:57:58;10.70;99.90
46440;DHT22;32138;50.966;6.968;2023-11-21T04:59:29;10.70;99.90
46440;DHT22;32138;50.966;6.968;2023-11-21T05:01:00;10.40;99.90
46440;DHT22;32138;50.966;6.968;2023-11-21T05:02:34;10.20;99.90
46440;DHT22;32138;50.966;6.968;2023-11-21T05:04:05;10.20;99.90
46440;DHT22;32138;50.966;6.968;2023-11-21T05:05:36;10.30;99.90
46440;DHT22;32138;50.966;6.968;2023-11-21T05:07:07;10.40;99.90
46440;DHT22;32138;50.966;6.968;2023-11-21T05:08:38;10.40;99.90
46440;DHT22;32138;50.966;6.968;2023-11-21T05:10:09;10.50;99.90
46440;DHT22;32138;50.966;6.968;2023-11-21T05:11:42;10.50;99.90
46440;DHT22;32138;50.966;6.968;2023-11-21T05:13:13;10.40;99.90
46440;DHT22;32138;50.966;6.968;2023-11-21T05:14:45;10.50;99.90
46440;DHT22;32138;50.966;6.968;2023-11-21T05:16:17;10.50;99.90
46440;DHT22;32138;50.966;6.968;2023-11-21T05:17:47;10.70;99.90
46440;DHT22;32138;50.966;6.968;2023-11-21T05:19:20;10.70;99.90
46440;DHT22;32138;50.966;6.968;2023-11-21T05:20:51;10.70;99.90
46440;DHT22;32138;50.966;6.968;2023-11-21T05:22:22;10.70;99.90
46440;DHT22;32138;50.966;6.968;2023-11-21T05:23:52;10.80;99.90
46440;DHT22;32138;50.966;6.968;2023-11-21T05:25:23;10.80;99.90
46440;DHT22;32138;50.966;6.968;2023-11-21T05:26:54;10.80;99.90
46440;DHT22;32138;50.966;6.968;2023-11-21T05:28:25;10.80;99.90
46440;DHT22;32138;50.966;6.968;2023-11-21T05:29:56;10.80;99.90
46440;DHT22;32138;50.966;6.968;2023-11-21T05:31:27;10.80;99.90
46440;DHT22;32138;50.966;6.968;2023-11-21T05:32:57;10.80;99.90
46440;DHT22;32138;50.966;6.968;2023-11-21T05:34:28;10.80;99.90
46440;DHT22;32138;50.966;6.968;2023-11-21T05:35:59;10.80;99.90
46440;DHT22;32138;50.966;6.968;2023-11-21T05:37:30;10.80;99.90
46440;DHT22;32138;50.966;6.968;2023-11-21T05:39:01;10.70;99.90
46440;DHT22;32138;50.966;6.968;2023-11-21T05:40:34;10.70;99.90
46440;DHT22;32138;50.966;6.968;2023-11-21T05:42:04;10.80;99.90
46440;DHT22;32138;50.966;6.968;2023-11-21T05:43:36;10.80;99.90
46440;DHT22;32138;50.966;6.968;2023-11-21T05:45:08;10.80;99.90
46440;DHT22;32138;50.966;6.968;2023-11-21T05:46:41;10.60;99.90
46440;DHT22;32138;50.966;6.968;2023-11-21T05:48:13;10.40;99.90
46440;DHT22;32138;50.966;6.968;2023-11-21T05:49:44;10.30;99.90
46440;DHT22;32138;50.966;6.968;2023-11-21T05:51:15;10.30;99.90
46440;DHT22;32138;50.966;6.968;2023-11-21T05:52:47;10.30;99.90
46440;DHT22;32138;50.966;6.968;2023-11-21T05:54:18;10.40;99.90
46440;DHT22;32138;50.966;6.968;2023-11-21T05:55:49;10.40;99.90
46440;DHT22;32138;50.966;6.968;2023-11-21T05:57:20;10.50;99.90
46440;DHT22;32138;50.966;6.968;2023-11-21T05:58:50;10.40;99.90
46440;DHT22;32138;50.966;6.968;2023-11-21T06:00:22;10.30;99.90
46440;DHT22;32138;50.966;6.968;2023-11-21T06:01:55;10.30;99.90
46440;DHT22;32138;50.966;6.968;2023-11-21T06:03:26;10.20;99.90
46440;DHT22;32138;50.966;6.968;2023-11-21T06:04:57;10.40;99.90
46440;DHT22;32138;50.966;6.968;2023-11-21T06:06:28;10.60;99.90
46440;DHT22;32138;50.966;6.968;2023-11-21T06:07:59;10.40;99.90
46440;DHT22;32138;50.966;6.968;2023-11-21T06:09:31;10.30;99.90
46440;DHT22;32138;50.966;6.968;2023-11-21T06:11:01;10.20;99.90
46440;DHT22;32138;50.966;6.968;2023-11-21T06:12:32;10.40;99.90
46440;DHT22;32138;50.966;6.968;2023-11-21T06:14:06;10.20;99.90
46440;DHT22;32138;50.966;6.968;2023-11-21T06:15:38;10.30;99.90
46440;DHT22;32138;50.966;6.968;2023-11-21T06:17:09;10.40;99.90
46440;DHT22;32138;50.966;6.968;2023-11-21T06:18:40;10.50;99.90
46440;DHT22;32138;50.966;6.968;2023-11-21T06:20:11;10.40;99.90
46440;DHT22;32138;50.966;6.968;2023-11-21T06:21:47;10.30;99.90
46440;DHT22;32138;50.966;6.968;2023-11-21T06:23:18;10.40;99.90
46440;DHT22;32138;50.966;6.968;2023-11-21T06:24:48;10.60;99.90
46440;DHT22;32138;50.966;6.968;2023-11-21T06:26:19;10.60;99.90
46440;DHT22;32138;50.966;6.968;2023-11-21T06:27:50;10.60;99.90
46440;DHT22;32138;50.966;6.968;2023-11-21T06:29:23;10.60;99.90
46440;DHT22;32138;50.966;6.968;2023-11-21T06:30:54;10.60;99.90
46440;DHT22;32138;50.966;6.968;2023-11-21T06:32:24;10.60;99.90
46440;DHT22;32138;50.966;6.968;2023-11-21T06:33:56;10.50;99.90
46440;DHT22;32138;50.966;6.968;2023-11-21T06:35:28;10.50;99.90
46440;DHT22;32138;50.966;6.968;2023-11-21T06:37:00;10.50;99.90
46440;DHT22;32138;50.966;6.968;2023-11-21T06:38:31;10.50;99.90
46440;DHT22;32138;50.966;6.968;2023-11-21T06:40:03;10.60;99.90
46440;DHT22;32138;50.966;6.968;2023-11-21T06:41:34;10.50;99.90
46440;DHT22;32138;50.966;6.968;2023-11-21T06:43:05;10.50;99.90
46440;DHT22;32138;50.966;6.968;2023-11-21T06:44:37;10.60;99.90
46440;DHT22;32138;50.966;6.968;2023-11-21T06:46:08;10.70;99.90
46440;DHT22;32138;50.966;6.968;2023-11-21T06:47:41;10.70;99.90
46440;DHT22;32138;50.966;6.968;2023-11-21T06:49:12;10.60;99.90
46440;DHT22;32138;50.966;6.968;2023-11-21T06:50:43;10.60;99.90
46440;DHT22;32138;50.966;6.968;2023-11-21T06:52:14;10.50;99.90
46440;DHT22;32138;50.966;6.968;2023-11-21T06:53:45;10.40;99.90
46440;DHT22;32138;50.966;6.968;2023-11-21T06:55:15;10.40;99.90
46440;DHT22;32138;50.966;6.968;2023-11-21T06:56:47;10.40;99.90
46440;DHT22;32138;50.966;6.968;2023-11-21T06:58:17;10.50;99.90
46440;DHT22;32138;50.966;6.968;2023-11-21T06:59:48;10.60;99.90
46440;DHT22;32138;50.966;6.968;2023-11-21T07:01:20;10.60;99.90
46440;DHT22;32138;50.966;6.968;2023-11-21T07:02:51;10.70;99.90
46440;DHT22;32138;50.966;6.968;2023-11-21T07:04:22;10.80;99.90
46440;DHT22;32138;50.966;6.968;2023-11-21T07:05:52;10.70;99.90
46440;DHT22;32138;50.966;6.968;2023-11-21T07:07:23;10.80;99.90
46440;DHT22;32138;50.966;6.968;2023-11-21T07:08:54;10.80;99.90
46440;DHT22;32138;50.966;6.968;2023-11-21T07:10:25;10.70;99.90
46440;DHT22;32138;50.966;6.968;2023-11-21T07:11:55;10.70;99.90
46440;DHT22;32138;50.966;6.968;2023-11-21T07:13:26;10.80;99.90
46440;DHT22;32138;50.966;6.968;2023-11-21T07:14:57;10.70;99.90
46440;DHT22;32138;50.966;6.968;2023-11-21T07:16:28;10.80;99.90
46440;DHT22;32138;50.966;6.968;2023-11-21T07:18:00;10.80;99.90
46440;DHT22;32138;50.966;6.968;2023-11-21T07:19:31;10.80;99.90
46440;DHT22;32138;50.966;6.968;2023-11-21T07:21:02;10.80;99.90
46440;DHT22;32138;50.966;6.968;2023-11-21T07:22:34;10.80;99.90
46440;DHT22;32138;50.966;6.968;2023-11-21T07:24:05;10.80;99.90
46440;DHT22;32138;50.966;6.968;2023-11-21T07:25:37;10.90;99.90
46440;DHT22;32138;50.966;6.968;2023-11-21T07:27:08;10.90;99.90
46440;DHT22;32138;50.966;6.968;2023-11-21T07:28:38;10.90;99.90
46440;DHT22;32138;50.966;6.968;2023-11-21T07:30:10;10.80;99.90
46440;DHT22;32138;50.966;6.968;2023-11-21T07:31:41;10.80;99.90
46440;DHT22;32138;50.966;6.968;2023-11-21T07:33:12;10.80;99.90
46440;DHT22;32138;50.966;6.968;2023-11-21T07:34:43;10.80;99.90
46440;DHT22;32138;50.966;6.968;2023-11-21T07:36:14;10.90;99.90
46440;DHT22;32138;50.966;6.968;2023-11-21T07:37:45;10.90;99.90
46440;DHT22;32138;50.966;6.968;2023-11-21T07:39:17;10.90;99.90
46440;DHT22;32138;50.966;6.968;2023-11-21T07:40:48;10.80;99.90
46440;DHT22;32138;50.966;6.968;2023-11-21T07:42:19;10.90;99.90
46440;DHT22;32138;50.966;6.968;2023-11-21T07:43:50;10.80;99.90
46440;DHT22;32138;50.966;6.968;2023-11-21T07:45:20;10.80;99.90
46440;DHT22;32138;50.966;6.968;2023-11-21T07:46:52;10.90;99.90
46440;DHT22;32138;50.966;6.968;2023-11-21T07:48:23;10.90;99.90
46440;DHT22;32138;50.966;6.968;2023-11-21T07:49:54;10.90;99.90
46440;DHT22;32138;50.966;6.968;2023-11-21T07:51:26;11.00;99.90
46440;DHT22;32138;50.966;6.968;2023-11-21T07:52:57;10.90;99.90
46440;DHT22;32138;50.966;6.968;2023-11-21T07:54:28;10.90;99.90
46440;DHT22;32138;50.966;6.968;2023-11-21T07:56:03;10.90;99.90
46440;DHT22;32138;50.966;6.968;2023-11-21T07:57:35;10.90;99.90
46440;DHT22;32138;50.966;6.968;2023-11-21T07:59:06;10.80;99.90
46440;DHT22;32138;50.966;6.968;2023-11-21T08:00:36;10.70;99.90
46440;DHT22;32138;50.966;6.968;2023-11-21T08:02:09;10.60;99.90
46440;DHT22;32138;50.966;6.968;2023-11-21T08:03:40;10.60;99.90
46440;DHT22;32138;50.966;6.968;2023-11-21T08:05:12;10.50;99.90
46440;DHT22;32138;50.966;6.968;2023-11-21T08:06:43;10.50;99.90
46440;DHT22;32138;50.966;6.968;2023-11-21T08:08:13;10.40;99.90
46440;DHT22;32138;50.966;6.968;2023-11-21T08:09:45;10.40;99.90
46440;DHT22;32138;50.966;6.968;2023-11-21T08:11:17;10.50;99.90
46440;DHT22;32138;50.966;6.968;2023-11-21T08:12:47;10.40;99.90
46440;DHT22;32138;50.966;6.968;2023-11-21T08:14:19;10.40;99.90
46440;DHT22;32138;50.966;6.968;2023-11-21T08:15:53;10.40;99.90
46440;DHT22;32138;50.966;6.968;2023-11-21T08:17:24;10.60;99.90
46440;DHT22;32138;50.966;6.968;2023-11-21T08:18:55;10.80;99.90
46440;DHT22;32138;50.966;6.968;2023-11-21T08:20:26;11.00;99.90
46440;DHT22;32138;50.966;6.968;2023-11-21T08:21:56;10.90;99.90
46440;DHT22;32138;50.966;6.968;2023-11-21T08:23:29;10.90;99.90
46440;DHT22;32138;50.966;6.968;2023-11-21T08:25:00;11.00;99.90
46440;DHT22;32138;50.966;6.968;2023-11-21T08:26:31;11.00;99.90
46440;DHT22;32138;50.966;6.968;2023-11-21T08:28:01;10.90;99.90
46440;DHT22;32138;50.966;6.968;2023-11-21T08:29:32;11.00;99.90
46440;DHT22;32138;50.966;6.968;2023-11-21T08:31:03;11.10;99.90
46440;DHT22;32138;50.966;6.968;2023-11-21T08:32:34;11.20;99.90
46440;DHT22;32138;50.966;6.968;2023-11-21T08:34:05;11.10;99.90
46440;DHT22;32138;50.966;6.968;2023-11-21T08:35:37;11.20;99.90
46440;DHT22;32138;50.966;6.968;2023-11-21T08:37:08;11.10;99.90
46440;DHT22;32138;50.966;6.968;2023-11-21T08:38:39;11.00;99.90
46440;DHT22;32138;50.966;6.968;2023-11-21T08:40:10;11.10;99.90
46440;DHT22;32138;50.966;6.968;2023-11-21T08:41:42;11.10;99.90
46440;DHT22;32138;50.966;6.968;2023-11-21T08:43:13;11.10;99.90
46440;DHT22;32138;50.966;6.968;2023-11-21T08:44:46;11.10;99.90
46440;DHT22;32138;50.966;6.968;2023-11-21T08:46:17;11.10;99.90
46440;DHT22;32138;50.966;6.968;2023-11-21T08:47:48;11.10;99.90
46440;DHT22;32138;50.966;6.968;2023-11-21T08:49:19;11.10;99.90
46440;DHT22;32138;50.966;6.968;2023-11-21T08:50:50;11.10;99.90
46440;DHT22;32138;50.966;6.968;2023-11-21T08:52:21;11.10;99.90
46440;DHT22;32138;50.966;6.968;2023-11-21T08:53:53;11.10;99.90
46440;DHT22;32138;50.966;6.968;2023-11-21T08:55:23;11.20;99.90
46440;DHT22;32138;50.966;6.968;2023-11-21T08:56:54;11.20;99.90
46440;DHT22;32138;50.966;6.968;2023-11-21T08:58:25;11.10;99.90
46440;DHT22;32138;50.966;6.968;2023-11-21T08:59:56;11.00;99.90
46440;DHT22;32138;50.966;6.968;2023-11-21T09:01:27;11.10;99.90
46440;DHT22;32138;50.966;6.968;2023-11-21T09:02:58;11.10;99.90
46440;DHT22;32138;50.966;6.968;2023-11-21T09:04:29;11.00;99.90
46440;DHT22;32138;50.966;6.968;2023-11-21T09:06:00;11.10;99.90
46440;DHT22;32138;50.966;6.968;2023-11-21T09:07:31;11.10;99.90
46440;DHT22;32138;50.966;6.968;2023-11-21T09:09:01;11.10;99.90
46440;DHT22;32138;50.966;6.968;2023-11-21T09:10:35;11.20;99.90
46440;DHT22;32138;50.966;6.968;2023-11-21T09:12:07;11.20;99.90
46440;DHT22;32138;50.966;6.968;2023-11-21T09:13:38;11.10;99.90
46440;DHT22;32138;50.966;6.968;2023-11-21T09:15:09;10.90;99.90
46440;DHT22;32138;50.966;6.968;2023-11-21T09:16:41;10.90;99.90
46440;DHT22;32138;50.966;6.968;2023-11-21T09:18:13;11.00;99.90
46440;DHT22;32138;50.966;6.968;2023-11-21T09:19:45;11.00;99.90
46440;DHT22;32138;50.966;6.968;2023-11-21T09:21:20;11.10;99.90
46440;DHT22;32138;50.966;6.968;2023-11-21T09:22:51;11.20;99.90
46440;DHT22;32138;50.966;6.968;2023-11-21T09:24:21;11.30;99.90
46440;DHT22;32138;50.966;6.968;2023-11-21T09:25:52;11.20;99.90
46440;DHT22;32138;50.966;6.968;2023-11-21T09:27:27;11.30;99.90
46440;DHT22;32138;50.966;6.968;2023-11-21T09:28:57;11.30;99.90
46440;DHT22;32138;50.966;6.968;2023-11-21T09:30:28;11.30;99.90
46440;DHT22;32138;50.966;6.968;2023-11-21T09:31:59;11.30;99.90
46440;DHT22;32138;50.966;6.968;2023-11-21T09:33:31;11.40;99.90
46440;DHT22;32138;50.966;6.968;2023-11-21T09:35:02;11.30;99.90
46440;DHT22;32138;50.966;6.968;2023-11-21T09:36:34;11.30;99.90